createdAt,value
2023-03-13T00:00:26.652Z, 45.29
2023-03-13T00:01:26.646Z, 45.21
2023-03-13T00:02:33.941Z, 45.18
2023-03-13T00:03:26.637Z, 45.18
2023-03-13T00:04:26.653Z, 45.14
2023-03-13T00:05:26.668Z, 45.06
2023-03-13T00:06:26.648Z, 45.01
2023-03-13T00:07:26.644Z, 45.04
2023-03-13T00:08:26.648Z, 44.97
2023-03-13T00:09:26.681Z, 44.92
2023-03-13T00:10:26.687Z, 44.92
2023-03-13T00:11:26.697Z, 44.96
2023-03-13T00:12:26.698Z, 44.84
2023-03-13T00:13:26.706Z, 44.79
2023-03-13T00:14:26.712Z, 44.70
2023-03-13T00:15:26.723Z, 44.67
2023-03-13T00:16:26.953Z, 44.59
2023-03-13T00:17:26.922Z, 44.57
2023-03-13T00:18:26.932Z, 44.55
2023-03-13T00:19:26.954Z, 44.58
2023-03-13T00:20:26.922Z, 44.56
2023-03-13T00:21:26.954Z, 44.45
2023-03-13T00:22:26.912Z, 44.39
2023-03-13T00:23:26.911Z, 44.37
2023-03-13T00:24:26.966Z, 44.29
2023-03-13T00:25:26.933Z, 44.28
2023-03-13T00:26:26.984Z, 44.28
2023-03-13T00:29:26.981Z, 44.08
2023-03-13T00:30:27.082Z, 44.07
2023-03-13T00:31:27.234Z, 43.99
2023-03-13T00:32:27.117Z, 43.93
2023-03-13T00:33:27.020Z, 43.93
2023-03-13T00:34:26.985Z, 43.93
2023-03-13T00:35:27.145Z, 43.93
2023-03-13T00:36:27.067Z, 43.87
2023-03-13T00:37:27.029Z, 43.85
2023-03-13T00:38:27.077Z, 43.82
2023-03-13T00:39:27.022Z, 43.76
2023-03-13T00:40:27.053Z, 43.75
2023-03-13T00:41:27.064Z, 43.69
2023-03-13T00:42:27.049Z, 43.75
2023-03-13T00:43:27.054Z, 43.74
2023-03-13T00:44:27.074Z, 43.68
2023-03-13T00:45:27.115Z, 43.58
2023-03-13T00:46:27.210Z, 43.59
2023-03-13T00:47:27.063Z, 43.56
2023-03-13T00:48:27.050Z, 43.45
2023-03-13T00:49:27.108Z, 43.41
2023-03-13T00:50:27.085Z, 43.47
2023-03-13T00:51:27.607Z, 43.39
2023-03-13T00:52:27.272Z, 43.35
2023-03-13T00:53:27.124Z, 43.31
2023-03-13T00:54:27.178Z, 43.27
2023-03-13T00:55:27.139Z, 43.21
2023-03-13T00:56:27.130Z, 43.15
2023-03-13T00:57:27.131Z, 43.14
2023-03-13T00:58:27.168Z, 43.16
2023-03-13T00:59:27.190Z, 43.09
2023-03-13T01:00:27.174Z, 43.09
2023-03-13T01:01:27.184Z, 43.01
2023-03-13T01:02:27.306Z, 42.97
2023-03-13T01:03:27.362Z, 42.93
2023-03-13T01:04:27.220Z, 42.90
2023-03-13T01:05:27.267Z, 42.88
2023-03-13T01:06:27.271Z, 42.84
2023-03-13T01:07:27.250Z, 42.77
2023-03-13T01:08:27.306Z, 42.79
2023-03-13T01:09:27.277Z, 42.75
2023-03-13T01:10:27.301Z, 42.73
2023-03-13T01:11:27.299Z, 42.70
2023-03-13T01:12:27.284Z, 42.64
2023-03-13T01:13:27.330Z, 42.59
2023-03-13T01:14:27.291Z, 42.59
2023-03-13T01:15:27.349Z, 42.56
2023-03-13T01:16:27.362Z, 42.52
2023-03-13T01:17:27.436Z, 42.49
2023-03-13T01:18:27.451Z, 42.37
2023-03-13T01:19:27.395Z, 42.38
2023-03-13T01:20:27.500Z, 42.34
2023-03-13T01:21:27.407Z, 42.28
2023-03-13T01:22:27.415Z, 42.25
2023-03-13T01:23:27.402Z, 42.22
2023-03-13T01:24:27.394Z, 42.18
2023-03-13T01:25:27.404Z, 42.17
2023-03-13T01:26:27.500Z, 42.15
2023-03-13T01:27:32.158Z, 42.17
2023-03-13T01:28:27.443Z, 42.15
2023-03-13T01:29:27.518Z, 42.12
2023-03-13T01:30:27.479Z, 42.11
2023-03-13T01:31:27.586Z, 42.05
2023-03-13T01:32:27.574Z, 42.01
2023-03-13T01:33:27.549Z, 41.99
2023-03-13T01:34:27.562Z, 41.95
2023-03-13T01:35:27.557Z, 41.87
2023-03-13T01:36:27.567Z, 41.91
2023-03-13T01:37:27.586Z, 41.85
2023-03-13T01:38:27.575Z, 41.80
2023-03-13T01:39:27.565Z, 41.78
2023-03-13T01:40:27.586Z, 41.80
2023-03-13T01:41:27.640Z, 41.76
2023-03-13T01:42:27.654Z, 41.73
2023-03-13T01:43:27.858Z, 41.72
2023-03-13T01:44:27.639Z, 41.70
2023-03-13T01:45:27.644Z, 41.66
2023-03-13T01:46:28.132Z, 41.63
2023-03-13T01:47:27.635Z, 41.63
2023-03-13T01:48:27.658Z, 41.56
2023-03-13T01:49:27.670Z, 41.53
2023-03-13T01:50:27.681Z, 41.51
2023-03-13T01:51:27.748Z, 41.47
2023-03-13T01:52:27.795Z, 41.44
2023-03-13T01:53:27.765Z, 41.33
2023-03-13T01:54:27.756Z, 41.37
2023-03-13T01:55:27.799Z, 41.37
2023-03-13T01:56:27.844Z, 41.37
2023-03-13T01:57:27.831Z, 41.36
2023-03-13T01:58:27.835Z, 41.34
2023-03-13T01:59:27.861Z, 41.36
2023-03-13T02:00:27.835Z, 41.26
2023-03-13T02:01:28.002Z, 41.24
2023-03-13T02:02:27.900Z, 41.25
2023-03-13T02:03:27.859Z, 41.22
2023-03-13T02:04:27.850Z, 41.13
2023-03-13T02:05:27.850Z, 41.09
2023-03-13T02:06:27.933Z, 41.02
2023-03-13T02:07:27.935Z, 41.02
2023-03-13T02:08:27.932Z, 41.08
2023-03-13T02:09:27.912Z, 41.04
2023-03-13T02:10:27.963Z, 41.03
2023-03-13T02:11:27.951Z, 40.99
2023-03-13T02:12:27.934Z, 40.93
2023-03-13T02:13:27.990Z, 40.91
2023-03-13T02:14:27.968Z, 40.82
2023-03-13T02:15:27.962Z, 40.83
2023-03-13T02:16:28.117Z, 40.81
2023-03-13T02:17:27.957Z, 40.82
2023-03-13T02:18:28.018Z, 40.77
2023-03-13T02:19:27.998Z, 40.75
2023-03-13T02:20:28.076Z, 40.73
2023-03-13T02:21:28.041Z, 40.73
2023-03-13T02:22:28.050Z, 40.65
2023-03-13T02:23:28.051Z, 40.64
2023-03-13T02:24:28.062Z, 40.62
2023-03-13T02:25:28.038Z, 40.61
2023-03-13T02:26:28.051Z, 40.55
2023-03-13T02:27:28.080Z, 40.56
2023-03-13T02:28:28.104Z, 40.55
2023-03-13T02:29:28.158Z, 40.51
2023-03-13T02:30:28.134Z, 40.50
2023-03-13T02:31:28.198Z, 40.41
2023-03-13T02:32:28.261Z, 40.43
2023-03-13T02:33:28.207Z, 40.38
2023-03-13T02:34:28.223Z, 40.35
2023-03-13T02:35:28.222Z, 40.37
2023-03-13T02:36:28.184Z, 40.35
2023-03-13T02:37:28.246Z, 40.32
2023-03-13T02:38:28.254Z, 40.27
2023-03-13T02:39:28.256Z, 40.26
2023-03-13T02:40:28.270Z, 40.30
2023-03-13T02:41:28.285Z, 40.25
2023-03-13T02:42:32.659Z, 40.18
2023-03-13T02:43:28.266Z, 40.09
2023-03-13T02:44:28.314Z, 40.12
2023-03-13T02:45:28.318Z, 40.12
2023-03-13T02:46:28.346Z, 40.06
2023-03-13T02:47:28.316Z, 40.05
2023-03-13T02:48:28.315Z, 40.02
2023-03-13T02:49:28.335Z, 39.99
2023-03-13T02:50:28.330Z, 40.01
2023-03-13T02:51:28.332Z, 39.96
2023-03-13T02:52:28.335Z, 40.00
2023-03-13T02:53:28.381Z, 39.89
2023-03-13T02:54:28.370Z, 39.81
2023-03-13T02:55:28.488Z, 39.87
2023-03-13T02:56:28.444Z, 39.88
2023-03-13T02:57:28.430Z, 39.87
2023-03-13T02:58:30.275Z, 39.85
2023-03-13T02:59:28.421Z, 39.86
2023-03-13T03:00:28.506Z, 39.78
2023-03-13T03:01:28.435Z, 39.76
2023-03-13T03:02:28.463Z, 39.76
2023-03-13T03:03:28.507Z, 39.66
2023-03-13T03:04:28.567Z, 39.58
2023-03-13T03:05:28.558Z, 39.57
2023-03-13T03:06:28.544Z, 39.61
2023-03-13T03:07:28.542Z, 39.59
2023-03-13T03:08:28.521Z, 39.58
2023-03-13T03:09:28.573Z, 39.56
2023-03-13T03:10:28.549Z, 39.55
2023-03-13T03:11:28.571Z, 39.53
2023-03-13T03:12:28.617Z, 39.45
2023-03-13T03:13:28.624Z, 39.41
2023-03-13T03:14:28.587Z, 39.44
2023-03-13T03:15:28.610Z, 39.44
2023-03-13T03:16:28.710Z, 39.43
2023-03-13T03:17:28.654Z, 39.37
2023-03-13T03:18:29.668Z, 39.34
2023-03-13T03:19:28.698Z, 39.36
2023-03-13T03:20:28.653Z, 39.32
2023-03-13T03:21:28.702Z, 39.25
2023-03-13T03:22:28.699Z, 39.19
2023-03-13T03:23:28.700Z, 39.20
2023-03-13T03:24:28.701Z, 39.18
2023-03-13T03:25:28.704Z, 39.13
2023-03-13T03:26:28.701Z, 39.16
2023-03-13T03:27:28.706Z, 39.16
2023-03-13T03:28:28.701Z, 39.03
2023-03-13T03:29:28.731Z, 39.03
2023-03-13T03:30:28.779Z, 39.03
2023-03-13T03:31:28.801Z, 39.04
2023-03-13T03:32:28.796Z, 39.02
2023-03-13T03:33:28.781Z, 38.99
2023-03-13T03:34:28.773Z, 38.95
2023-03-13T03:35:28.794Z, 38.90
2023-03-13T03:36:28.787Z, 38.85
2023-03-13T03:37:28.791Z, 38.90
2023-03-13T03:38:28.805Z, 38.84
2023-03-13T03:39:28.799Z, 38.78
2023-03-13T03:40:28.895Z, 38.77
2023-03-13T03:41:28.942Z, 38.81
2023-03-13T03:42:28.889Z, 38.86
2023-03-13T03:43:28.921Z, 38.82
2023-03-13T03:44:28.905Z, 38.74
2023-03-13T03:45:28.973Z, 38.71
2023-03-13T03:46:28.893Z, 38.65
2023-03-13T03:47:28.996Z, 38.64
2023-03-13T03:48:29.025Z, 38.64
2023-03-13T03:49:28.975Z, 38.59
2023-03-13T03:50:28.975Z, 38.59
2023-03-13T03:51:28.946Z, 38.56
2023-03-13T03:52:28.984Z, 38.51
2023-03-13T03:53:28.987Z, 38.48
2023-03-13T03:54:28.999Z, 38.48
2023-03-13T03:55:28.980Z, 38.44
2023-03-13T03:56:29.050Z, 38.43
2023-03-13T03:57:33.027Z, 38.39
2023-03-13T03:58:29.066Z, 38.35
2023-03-13T03:59:29.073Z, 38.38
2023-03-13T04:00:29.080Z, 38.39
2023-03-13T04:01:29.055Z, 38.35
2023-03-13T04:02:29.138Z, 38.34
2023-03-13T04:03:29.131Z, 38.32
2023-03-13T04:04:29.084Z, 38.29
2023-03-13T04:05:29.152Z, 38.28
2023-03-13T04:06:29.126Z, 38.32
2023-03-13T04:07:29.141Z, 38.35
2023-03-13T04:08:29.157Z, 38.33
2023-03-13T04:09:31.822Z, 38.30
2023-03-13T04:10:29.157Z, 38.27
2023-03-13T04:11:29.147Z, 38.23
2023-03-13T04:12:29.147Z, 38.15
2023-03-13T04:13:29.212Z, 38.16
2023-03-13T04:14:29.245Z, 38.14
2023-03-13T04:15:29.271Z, 38.19
2023-03-13T04:16:29.329Z, 38.15
2023-03-13T04:17:29.236Z, 38.06
2023-03-13T04:18:29.245Z, 38.06
2023-03-13T04:19:29.237Z, 38.05
2023-03-13T04:20:29.279Z, 38.08
2023-03-13T04:21:29.254Z, 38.01
2023-03-13T04:22:29.251Z, 37.99
2023-03-13T04:23:29.268Z, 37.97
2023-03-13T04:24:29.332Z, 37.87
2023-03-13T04:25:29.324Z, 37.94
2023-03-13T04:26:29.312Z, 37.95
2023-03-13T04:27:29.392Z, 37.85
2023-03-13T04:28:29.307Z, 37.81
2023-03-13T04:29:29.312Z, 37.82
2023-03-13T04:30:29.468Z, 37.82
2023-03-13T04:31:29.343Z, 38.53
2023-03-13T04:32:29.441Z, 39.74
2023-03-13T04:33:29.379Z, 40.02
2023-03-13T04:34:29.424Z, 40.03
2023-03-13T04:35:29.493Z, 39.95
2023-03-13T04:36:29.429Z, 39.86
2023-03-13T04:37:29.438Z, 39.65
2023-03-13T04:38:29.450Z, 39.26
2023-03-13T04:39:30.956Z, 38.60
2023-03-13T04:40:29.430Z, 37.71
2023-03-13T04:41:29.556Z, 36.79
2023-03-13T04:42:29.559Z, 35.97
2023-03-13T04:43:29.568Z, 35.28
2023-03-13T04:44:29.548Z, 34.78
2023-03-13T04:45:29.563Z, 34.34
2023-03-13T04:46:29.698Z, 34.09
2023-03-13T04:47:29.539Z, 38.46
2023-03-13T04:48:29.538Z, 44.18
2023-03-13T04:49:29.549Z, 46.32
2023-03-13T04:50:29.548Z, 44.40
2023-03-13T04:51:29.556Z, 42.61
2023-03-13T04:52:29.543Z, 41.00
2023-03-13T04:53:29.546Z, 39.50
2023-03-13T04:54:29.556Z, 38.34
2023-03-13T04:55:29.551Z, 37.33
2023-03-13T04:56:42.229Z, 36.19
2023-03-13T04:57:29.564Z, 34.97
2023-03-13T04:58:29.602Z, 33.85
2023-03-13T04:59:29.606Z, 33.15
2023-03-13T05:00:29.616Z, 32.70
2023-03-13T05:01:29.703Z, 32.38
2023-03-13T05:02:29.601Z, 32.02
2023-03-13T05:03:29.594Z, 32.21
2023-03-13T05:04:29.605Z, 37.59
2023-03-13T05:05:29.716Z, 43.12
2023-03-13T05:06:29.713Z, 46.64
2023-03-13T05:07:29.686Z, 45.98
2023-03-13T05:08:29.693Z, 44.71
2023-03-13T05:09:29.681Z, 43.92
2023-03-13T05:10:29.675Z, 42.93
2023-03-13T05:11:29.670Z, 41.93
2023-03-13T05:12:33.463Z, 41.07
2023-03-13T05:13:29.674Z, 40.29
2023-03-13T05:14:29.761Z, 39.58
2023-03-13T05:15:29.707Z, 38.88
2023-03-13T05:16:29.723Z, 38.26
2023-03-13T05:17:29.783Z, 37.61
2023-03-13T05:18:29.755Z, 37.05
2023-03-13T05:19:29.761Z, 36.43
2023-03-13T05:20:29.752Z, 35.77
2023-03-13T05:21:29.774Z, 35.95
2023-03-13T05:22:29.780Z, 41.63
2023-03-13T05:23:29.797Z, 46.69
2023-03-13T05:24:29.787Z, 48.50
2023-03-13T05:25:29.806Z, 47.65
2023-03-13T05:26:29.839Z, 46.93
2023-03-13T05:27:29.824Z, 46.35
2023-03-13T05:28:29.832Z, 45.84
2023-03-13T05:29:29.883Z, 45.43
2023-03-13T05:30:29.847Z, 46.75
2023-03-13T05:31:29.972Z, 50.23
2023-03-13T05:32:29.999Z, 52.31
2023-03-13T05:33:29.892Z, 54.97
2023-03-13T05:34:29.896Z, 58.24
2023-03-13T05:35:29.929Z, 63.09
2023-03-13T05:36:29.887Z, 62.11
2023-03-13T05:37:29.886Z, 52.20
2023-03-13T05:38:29.899Z, 53.60
2023-03-13T05:39:29.976Z, 54.85
2023-03-13T05:40:29.974Z, 56.68
2023-03-13T05:41:29.942Z, 59.28
2023-03-13T05:42:29.946Z, 66.09
2023-03-13T05:43:29.952Z, 57.36
2023-03-13T05:44:30.008Z, 52.99
2023-03-13T05:45:29.990Z, 54.40
2023-03-13T05:46:30.113Z, 55.53
2023-03-13T05:47:30.039Z, 57.62
2023-03-13T05:48:30.011Z, 59.51
2023-03-13T05:49:30.034Z, 60.61
2023-03-13T05:50:30.037Z, 61.55
2023-03-13T05:51:30.022Z, 64.20
2023-03-13T05:52:30.028Z, 64.96
2023-03-13T05:53:30.036Z, 64.65
2023-03-13T05:54:30.125Z, 64.06
2023-03-13T05:55:30.126Z, 63.60
2023-03-13T05:56:30.113Z, 63.33
2023-03-13T05:57:30.098Z, 62.88
2023-03-13T05:58:30.108Z, 62.03
2023-03-13T05:59:30.101Z, 61.25
2023-03-13T06:00:30.096Z, 60.69
2023-03-13T06:01:30.092Z, 60.12
2023-03-13T06:02:30.137Z, 59.69
2023-03-13T06:03:30.343Z, 59.21
2023-03-13T06:04:30.297Z, 58.60
2023-03-13T06:05:30.210Z, 58.05
2023-03-13T06:06:30.168Z, 57.55
2023-03-13T06:07:30.287Z, 56.98
2023-03-13T06:08:30.231Z, 56.57
2023-03-13T06:09:30.215Z, 56.13
2023-03-13T06:10:30.233Z, 55.71
2023-03-13T06:11:30.246Z, 55.24
2023-03-13T06:12:30.195Z, 54.84
2023-03-13T06:13:30.217Z, 54.36
2023-03-13T06:14:30.220Z, 53.96
2023-03-13T06:15:30.309Z, 53.56
2023-03-13T06:16:30.324Z, 53.14
2023-03-13T06:17:30.274Z, 52.72
2023-03-13T06:18:30.274Z, 52.59
2023-03-13T06:19:30.321Z, 52.33
2023-03-13T06:20:30.345Z, 51.97
2023-03-13T06:21:30.329Z, 51.63
2023-03-13T06:22:30.322Z, 51.30
2023-03-13T06:23:30.331Z, 51.07
2023-03-13T06:24:30.319Z, 50.78
2023-03-13T06:25:30.343Z, 50.53
2023-03-13T06:26:33.851Z, 50.29
2023-03-13T06:27:30.376Z, 50.08
2023-03-13T06:28:30.423Z, 49.91
2023-03-13T06:29:30.389Z, 49.73
2023-03-13T06:30:30.507Z, 49.57
2023-03-13T06:31:30.488Z, 49.33
2023-03-13T06:32:30.667Z, 49.13
2023-03-13T06:33:30.533Z, 48.99
2023-03-13T06:34:30.469Z, 48.86
2023-03-13T06:35:30.473Z, 48.68
2023-03-13T06:36:30.477Z, 48.48
2023-03-13T06:37:30.454Z, 48.34
2023-03-13T06:38:30.522Z, 48.21
2023-03-13T06:39:30.529Z, 48.03
2023-03-13T06:40:30.519Z, 47.87
2023-03-13T06:41:30.531Z, 47.73
2023-03-13T06:42:30.563Z, 47.59
2023-03-13T06:43:30.587Z, 47.39
2023-03-13T06:44:30.575Z, 47.24
2023-03-13T06:45:30.562Z, 47.07
2023-03-13T06:46:30.570Z, 46.94
2023-03-13T06:47:30.559Z, 46.84
2023-03-13T06:48:30.570Z, 46.72
2023-03-13T06:49:30.580Z, 46.61
2023-03-13T06:50:30.596Z, 46.51
2023-03-13T06:51:30.609Z, 46.39
2023-03-13T06:52:41.423Z, 46.30
2023-03-13T06:53:30.629Z, 46.16
2023-03-13T06:54:30.653Z, 46.02
2023-03-13T06:55:30.734Z, 45.90
2023-03-13T06:56:30.693Z, 45.80
2023-03-13T06:57:30.687Z, 45.64
2023-03-13T06:58:32.623Z, 45.61
2023-03-13T06:59:30.739Z, 45.52
2023-03-13T07:00:30.864Z, 45.42
2023-03-13T07:01:30.834Z, 45.28
2023-03-13T07:02:30.756Z, 45.20
2023-03-13T07:03:30.765Z, 45.10
2023-03-13T07:04:30.759Z, 44.97
2023-03-13T07:05:30.908Z, 44.95
2023-03-13T07:06:30.803Z, 44.85
2023-03-13T07:07:32.027Z, 44.82
2023-03-13T07:08:30.923Z, 44.69
2023-03-13T07:09:30.925Z, 44.60
2023-03-13T07:10:30.945Z, 44.52
2023-03-13T07:11:30.914Z, 44.46
2023-03-13T07:12:30.916Z, 44.39
2023-03-13T07:13:30.917Z, 44.29
2023-03-13T07:14:30.914Z, 44.18
2023-03-13T07:15:30.948Z, 44.06
2023-03-13T07:16:31.106Z, 43.99
2023-03-13T07:17:31.121Z, 43.98
2023-03-13T07:18:31.075Z, 43.90
2023-03-13T07:19:31.060Z, 43.86
2023-03-13T07:20:31.218Z, 43.80
2023-03-13T07:21:31.062Z, 43.68
2023-03-13T07:22:31.061Z, 43.63
2023-03-13T07:23:31.067Z, 43.51
2023-03-13T07:24:31.178Z, 43.45
2023-03-13T07:25:31.062Z, 43.43
2023-03-13T07:26:31.145Z, 43.33
2023-03-13T07:27:31.069Z, 43.26
2023-03-13T07:28:31.068Z, 43.18
2023-03-13T07:29:31.073Z, 43.14
2023-03-13T07:30:31.205Z, 43.09
2023-03-13T07:31:31.226Z, 42.98
2023-03-13T07:32:31.256Z, 42.87
2023-03-13T07:33:34.113Z, 42.81
2023-03-13T07:34:31.211Z, 42.77
2023-03-13T07:35:31.212Z, 42.75
2023-03-13T07:36:31.307Z, 42.73
2023-03-13T07:37:31.215Z, 42.64
2023-03-13T07:38:31.235Z, 42.54
2023-03-13T07:39:31.216Z, 42.46
2023-03-13T07:40:31.211Z, 42.45
2023-03-13T07:41:31.358Z, 42.43
2023-03-13T07:42:31.244Z, 42.39
2023-03-13T07:43:31.375Z, 42.29
2023-03-13T07:44:31.351Z, 42.27
2023-03-13T07:45:31.388Z, 42.21
2023-03-13T07:46:31.353Z, 42.16
2023-03-13T07:47:31.353Z, 42.09
2023-03-13T07:48:31.358Z, 41.99
2023-03-13T07:49:31.358Z, 41.91
2023-03-13T07:50:31.424Z, 41.85
2023-03-13T07:51:42.924Z, 41.80
2023-03-13T07:52:31.393Z, 41.73
2023-03-13T07:53:31.427Z, 41.71
2023-03-13T07:54:31.359Z, 41.65
2023-03-13T07:55:31.393Z, 41.62
2023-03-13T07:56:31.358Z, 41.52
2023-03-13T07:57:31.399Z, 41.53
2023-03-13T07:58:31.498Z, 41.47
2023-03-13T07:59:31.502Z, 41.41
2023-03-13T08:00:31.500Z, 41.37
2023-03-13T08:01:31.621Z, 41.35
2023-03-13T08:02:31.513Z, 41.28
2023-03-13T08:03:31.552Z, 41.20
2023-03-13T08:04:31.506Z, 41.15
2023-03-13T08:05:31.506Z, 41.13
2023-03-13T08:06:33.790Z, 41.07
2023-03-13T08:07:31.537Z, 41.07
2023-03-13T08:08:31.509Z, 41.00
2023-03-13T08:09:31.657Z, 40.96
2023-03-13T08:10:31.649Z, 40.93
2023-03-13T08:11:31.538Z, 40.83
2023-03-13T08:12:31.646Z, 40.78
2023-03-13T08:13:31.644Z, 40.76
2023-03-13T08:14:31.532Z, 40.72
2023-03-13T08:15:31.656Z, 40.66
2023-03-13T08:16:31.718Z, 40.63
2023-03-13T08:17:31.679Z, 40.60
2023-03-13T08:18:31.650Z, 40.56
2023-03-13T08:19:31.668Z, 40.53
2023-03-13T08:20:31.651Z, 40.48
2023-03-13T08:21:31.654Z, 40.49
2023-03-13T08:22:31.646Z, 40.48
2023-03-13T08:23:31.650Z, 40.35
2023-03-13T08:24:31.650Z, 40.35
2023-03-13T08:25:31.795Z, 40.28
2023-03-13T08:26:31.686Z, 40.26
2023-03-13T08:27:31.694Z, 40.21
2023-03-13T08:28:31.818Z, 40.11
2023-03-13T08:29:31.796Z, 40.08
2023-03-13T08:30:31.876Z, 40.09
2023-03-13T08:31:31.834Z, 40.06
2023-03-13T08:32:31.867Z, 40.04
2023-03-13T08:33:31.794Z, 40.01
2023-03-13T08:34:31.797Z, 40.00
2023-03-13T08:35:31.845Z, 39.96
2023-03-13T08:36:31.838Z, 39.88
2023-03-13T08:37:31.809Z, 39.85
2023-03-13T08:38:31.946Z, 39.82
2023-03-13T08:39:31.937Z, 39.82
2023-03-13T08:40:31.937Z, 39.76
2023-03-13T08:41:31.941Z, 39.77
2023-03-13T08:42:31.941Z, 39.71
2023-03-13T08:43:31.938Z, 39.67
2023-03-13T08:44:31.935Z, 39.63
2023-03-13T08:45:31.944Z, 39.59
2023-03-13T08:46:32.019Z, 39.52
2023-03-13T08:47:31.945Z, 39.52
2023-03-13T08:48:34.286Z, 39.42
2023-03-13T08:49:31.949Z, 39.36
2023-03-13T08:50:31.953Z, 39.30
2023-03-13T08:51:31.950Z, 39.26
2023-03-13T08:52:31.950Z, 39.26
2023-03-13T08:53:31.956Z, 39.24
2023-03-13T08:54:31.959Z, 39.27
2023-03-13T08:55:31.960Z, 39.22
2023-03-13T08:56:31.985Z, 39.14
2023-03-13T08:57:31.973Z, 39.16
2023-03-13T08:58:31.996Z, 39.16
2023-03-13T08:59:31.997Z, 39.14
2023-03-13T09:00:31.985Z, 39.17
2023-03-13T09:01:32.057Z, 39.10
2023-03-13T09:02:32.128Z, 39.04
2023-03-13T09:03:32.130Z, 38.99
2023-03-13T09:04:32.054Z, 38.96
2023-03-13T09:05:33.048Z, 38.97
2023-03-13T09:06:32.075Z, 38.93
2023-03-13T09:07:32.056Z, 38.91
2023-03-13T09:08:32.098Z, 38.91
2023-03-13T09:09:32.053Z, 38.77
2023-03-13T09:10:32.256Z, 38.72
2023-03-13T09:11:32.243Z, 38.69
2023-03-13T09:12:32.243Z, 38.68
2023-03-13T09:13:32.230Z, 38.62
2023-03-13T09:14:32.226Z, 38.63
2023-03-13T09:15:32.268Z, 38.59
2023-03-13T09:16:32.277Z, 38.51
2023-03-13T09:17:32.243Z, 38.53
2023-03-13T09:18:32.422Z, 38.50
2023-03-13T09:19:32.406Z, 38.43
2023-03-13T09:20:32.262Z, 38.45
2023-03-13T09:21:32.416Z, 38.40
2023-03-13T09:22:32.410Z, 38.36
2023-03-13T09:23:32.411Z, 38.31
2023-03-13T09:24:32.421Z, 38.30
2023-03-13T09:25:32.410Z, 38.30
2023-03-13T09:26:32.415Z, 38.25
2023-03-13T09:27:32.412Z, 38.27
2023-03-13T09:28:32.443Z, 38.26
2023-03-13T09:29:32.406Z, 38.20
2023-03-13T09:30:32.409Z, 38.18
2023-03-13T09:31:32.500Z, 38.20
2023-03-13T09:32:32.526Z, 38.11
2023-03-13T09:33:32.449Z, 38.06
2023-03-13T09:34:32.409Z, 38.08
2023-03-13T09:35:32.412Z, 38.04
2023-03-13T09:36:32.424Z, 37.98
2023-03-13T09:37:32.418Z, 38.01
2023-03-13T09:38:32.458Z, 37.92
2023-03-13T09:39:32.452Z, 37.93
2023-03-13T09:40:32.593Z, 37.93
2023-03-13T09:41:32.588Z, 37.88
2023-03-13T09:42:32.586Z, 37.84
2023-03-13T09:43:32.597Z, 37.80
2023-03-13T09:44:32.619Z, 37.81
2023-03-13T09:45:32.600Z, 37.79
2023-03-13T09:46:32.725Z, 37.77
2023-03-13T09:47:32.600Z, 37.72
2023-03-13T09:48:32.599Z, 37.64
2023-03-13T09:49:32.621Z, 37.64
2023-03-13T09:50:32.625Z, 37.60
2023-03-13T09:51:32.597Z, 37.58
2023-03-13T09:52:32.626Z, 37.59
2023-03-13T09:53:32.629Z, 37.54
2023-03-13T09:54:32.637Z, 37.49
2023-03-13T09:55:32.639Z, 37.51
2023-03-13T09:56:32.632Z, 37.48
2023-03-13T09:57:32.629Z, 37.43
2023-03-13T09:58:32.625Z, 37.36
2023-03-13T09:59:32.634Z, 37.31
2023-03-13T10:00:32.637Z, 37.38
2023-03-13T10:01:32.726Z, 37.37
2023-03-13T10:02:32.784Z, 37.36
2023-03-13T10:03:34.659Z, 37.35
2023-03-13T10:04:32.824Z, 37.33
2023-03-13T10:05:32.774Z, 37.29
2023-03-13T10:06:32.773Z, 37.22
2023-03-13T10:07:32.778Z, 37.21
2023-03-13T10:08:32.785Z, 37.18
2023-03-13T10:09:32.794Z, 37.19
2023-03-13T10:10:32.784Z, 37.16
2023-03-13T10:11:32.785Z, 37.13
2023-03-13T10:12:32.778Z, 37.08
2023-03-13T10:13:32.804Z, 37.07
2023-03-13T10:14:32.781Z, 37.02
2023-03-13T10:15:32.922Z, 37.01
2023-03-13T10:16:32.962Z, 37.01
2023-03-13T10:17:32.926Z, 37.04
2023-03-13T10:18:32.935Z, 36.97
2023-03-13T10:19:32.929Z, 36.96
2023-03-13T10:20:32.925Z, 36.94
2023-03-13T10:21:32.949Z, 36.92
2023-03-13T10:22:32.924Z, 36.87
2023-03-13T10:23:32.923Z, 36.85
2023-03-13T10:24:32.931Z, 36.84
2023-03-13T10:25:32.924Z, 36.79
2023-03-13T10:26:32.935Z, 36.83
2023-03-13T10:27:32.951Z, 36.81
2023-03-13T10:28:32.929Z, 36.76
2023-03-13T10:29:32.959Z, 36.71
2023-03-13T10:30:32.966Z, 36.69
2023-03-13T10:31:33.089Z, 36.71
2023-03-13T10:32:32.990Z, 36.63
2023-03-13T10:33:32.993Z, 36.62
2023-03-13T10:34:32.969Z, 36.63
2023-03-13T10:35:33.036Z, 36.58
2023-03-13T10:36:32.993Z, 36.53
2023-03-13T10:37:33.010Z, 36.54
2023-03-13T10:38:33.007Z, 36.56
2023-03-13T10:39:33.002Z, 36.57
2023-03-13T10:40:32.999Z, 36.52
2023-03-13T10:41:32.993Z, 36.48
2023-03-13T10:42:33.005Z, 36.46
2023-03-13T10:43:33.017Z, 36.41
2023-03-13T10:44:33.006Z, 36.38
2023-03-13T10:45:32.999Z, 36.34
2023-03-13T10:46:33.127Z, 36.38
2023-03-13T10:47:33.075Z, 36.37
2023-03-13T10:48:33.070Z, 36.35
2023-03-13T10:49:33.109Z, 36.35
2023-03-13T10:50:33.078Z, 36.31
2023-03-13T10:51:33.249Z, 36.25
2023-03-13T10:52:33.259Z, 36.23
2023-03-13T10:53:33.263Z, 36.27
2023-03-13T10:54:33.256Z, 36.23
2023-03-13T10:55:33.286Z, 36.16
2023-03-13T10:56:33.278Z, 36.16
2023-03-13T10:57:33.260Z, 36.15
2023-03-13T10:58:33.443Z, 36.15
2023-03-13T10:59:33.424Z, 36.15
2023-03-13T11:00:33.427Z, 36.13
2023-03-13T11:01:33.429Z, 36.68
2023-03-13T11:02:33.336Z, 37.74
2023-03-13T11:03:33.549Z, 37.99
2023-03-13T11:04:33.300Z, 38.02
2023-03-13T11:05:33.466Z, 38.02
2023-03-13T11:06:33.434Z, 37.89
2023-03-13T11:07:33.446Z, 37.56
2023-03-13T11:08:33.465Z, 36.93
2023-03-13T11:09:33.426Z, 35.99
2023-03-13T11:10:33.434Z, 35.00
2023-03-13T11:11:33.438Z, 34.12
2023-03-13T11:12:33.434Z, 33.50
2023-03-13T11:13:36.922Z, 32.98
2023-03-13T11:14:33.442Z, 32.64
2023-03-13T11:15:33.473Z, 32.39
2023-03-13T11:16:35.014Z, 32.15
2023-03-13T11:17:33.445Z, 31.89
2023-03-13T11:18:33.436Z, 31.70
2023-03-13T11:19:33.439Z, 31.52
2023-03-13T11:20:33.475Z, 31.37
2023-03-13T11:21:33.645Z, 31.27
2023-03-13T11:22:33.618Z, 31.12
2023-03-13T11:23:33.614Z, 30.95
2023-03-13T11:24:33.481Z, 30.69
2023-03-13T11:25:33.479Z, 30.30
2023-03-13T11:26:33.622Z, 29.72
2023-03-13T11:27:33.636Z, 33.64
2023-03-13T11:28:33.644Z, 39.22
2023-03-13T11:29:33.813Z, 42.29
2023-03-13T11:30:33.653Z, 41.57
2023-03-13T11:31:33.687Z, 42.52
2023-03-13T11:32:33.688Z, 42.61
2023-03-13T11:33:33.632Z, 42.44
2023-03-13T11:34:33.649Z, 42.10
2023-03-13T11:35:33.662Z, 41.77
2023-03-13T11:36:33.633Z, 41.46
2023-03-13T11:37:33.671Z, 41.16
2023-03-13T11:38:33.672Z, 40.90
2023-03-13T11:39:33.646Z, 40.67
2023-03-13T11:40:33.798Z, 40.46
2023-03-13T11:41:33.902Z, 40.26
2023-03-13T11:42:33.806Z, 40.06
2023-03-13T11:43:33.809Z, 39.85
2023-03-13T11:44:33.813Z, 39.65
2023-03-13T11:45:33.905Z, 39.48
2023-03-13T11:46:33.985Z, 39.28
2023-03-13T11:47:33.807Z, 39.11
2023-03-13T11:48:33.803Z, 38.97
2023-03-13T11:49:33.813Z, 38.80
2023-03-13T11:50:33.819Z, 38.70
2023-03-13T11:51:33.906Z, 38.55
2023-03-13T11:52:33.813Z, 38.40
2023-03-13T11:53:33.807Z, 38.29
2023-03-13T11:54:33.809Z, 38.18
2023-03-13T11:55:33.821Z, 38.03
2023-03-13T11:56:33.809Z, 37.93
2023-03-13T11:57:33.814Z, 37.79
2023-03-13T11:58:33.820Z, 37.71
2023-03-13T11:59:33.815Z, 37.60
2023-03-13T12:00:34.017Z, 37.52
2023-03-13T12:01:33.989Z, 37.39
2023-03-13T12:02:34.044Z, 37.26
2023-03-13T12:03:34.271Z, 37.14
2023-03-13T12:04:34.006Z, 37.01
2023-03-13T12:05:34.090Z, 36.89
2023-03-13T12:06:33.988Z, 36.80
2023-03-13T12:07:33.996Z, 36.71
2023-03-13T12:08:33.991Z, 36.61
2023-03-13T12:09:34.031Z, 36.54
2023-03-13T12:10:34.005Z, 36.45
2023-03-13T12:11:33.999Z, 36.34
2023-03-13T12:12:34.002Z, 36.27
2023-03-13T12:13:34.026Z, 36.19
2023-03-13T12:14:34.197Z, 36.12
2023-03-13T12:15:34.164Z, 36.02
2023-03-13T12:16:34.215Z, 35.96
2023-03-13T12:17:34.228Z, 35.85
2023-03-13T12:18:34.172Z, 35.81
2023-03-13T12:19:34.181Z, 35.71
2023-03-13T12:20:34.196Z, 35.64
2023-03-13T12:21:34.264Z, 35.58
2023-03-13T12:22:34.172Z, 35.50
2023-03-13T12:23:34.213Z, 35.42
2023-03-13T12:24:34.213Z, 35.34
2023-03-13T12:25:34.284Z, 35.28
2023-03-13T12:26:34.350Z, 35.26
2023-03-13T12:27:34.181Z, 35.17
2023-03-13T12:28:34.260Z, 35.08
2023-03-13T12:29:34.218Z, 35.02
2023-03-13T12:30:34.223Z, 34.99